Lonetree, Indiana
Current Conditions -  °F | °C
As of 2:53 AM on Saturday 20 Dec 2014 (Local Time) from KHUF Reporting Station
Overcast Overcast  
Wind Chill: -4°   Ceiling: 2600
Heat Index: -1°   Visibility: 10mi
Dew Point: -4°   Wind: 6mph
Humidity: 82%   Direction: 120°ESE
Pressure: 30.29"   Gusts: NA
Location:  39.2016°N, 87.1874°W
Report Text: KHUF 200753Z 12005KT 10SM OVC026 M01/M04 A3029 RMK AO2 SLP261 T10111039
Loading
Personal Weather Stations






























Interactive Weather Map New forecast layout! Learn more

10-Day Weather Forecast

Advertisements
Track Severe Weather on mobile